createdAt,value
2019-02-24T07:00:14.046Z,7.40
2019-02-24T07:03:29.804Z,7.03
2019-02-24T07:48:34.249Z,5.57
2019-02-24T08:01:31.201Z,6.10
2019-02-24T08:08:06.929Z,9.00
2019-02-24T08:18:17.742Z,5.87
2019-02-24T08:30:52.115Z,8.00
2019-02-24T08:51:13.228Z,7.27
2019-02-24T09:01:47.881Z,6.77
2019-02-24T09:17:13.096Z,5.40
2019-02-24T09:20:03.379Z,7.33
2019-02-24T09:23:07.450Z,5.40
2019-02-24T09:26:09.754Z,5.47
2019-02-24T09:28:59.918Z,5.73
2019-02-24T09:31:43.915Z,5.60
2019-02-24T09:34:20.065Z,6.40
2019-02-24T09:37:23.740Z,7.10
2019-02-24T09:40:14.630Z,6.37
2019-02-24T09:42:45.458Z,6.17
2019-02-24T09:45:15.389Z,7.00
2019-02-24T09:50:50.136Z,7.53
2019-02-24T09:53:39.128Z,6.37
2019-02-24T09:56:11.414Z,7.47
2019-02-24T09:58:43.921Z,6.93
2019-02-24T10:01:16.245Z,6.60
2019-02-24T10:03:48.186Z,7.53
2019-02-24T10:06:22.603Z,7.87
2019-02-24T10:12:02.131Z,6.27
2019-02-24T10:14:51.605Z,6.67
2019-02-24T10:20:36.864Z,7.50
2019-02-24T10:23:16.685Z,7.73
2019-02-24T10:25:46.011Z,8.77
2019-02-24T10:28:18.083Z,9.10
2019-02-24T10:30:48.621Z,6.87
2019-02-24T10:33:18.928Z,9.53
2019-02-24T10:38:34.875Z,10.00
2019-02-24T10:41:26.362Z,8.37
2019-02-24T10:43:58.043Z,10.80
2019-02-24T10:49:30.435Z,8.83
2019-02-24T10:52:00.395Z,7.83
2019-02-24T10:54:31.276Z,7.37
2019-02-24T10:57:13.653Z,7.87
2019-02-24T10:59:43.568Z,9.03
2019-02-24T11:02:15.137Z,8.87
2019-02-24T11:04:49.025Z,7.90
2019-02-24T11:07:40.021Z,8.73
2019-02-24T11:10:12.029Z,8.13
2019-02-24T11:12:41.412Z,10.27
2019-02-24T11:15:13.803Z,11.43
2019-02-24T11:17:45.277Z,9.17
2019-02-24T11:20:18.807Z,7.40
2019-02-24T11:22:50.018Z,9.60
2019-02-24T11:25:20.416Z,9.90
2019-02-24T11:27:50.598Z,9.30
2019-02-24T11:30:23.644Z,8.73
2019-02-24T11:32:55.787Z,8.60
2019-02-24T11:35:26.617Z,11.50
2019-02-24T11:38:19.271Z,11.23
2019-02-24T11:40:49.839Z,9.07
2019-02-24T11:43:23.703Z,9.70
2019-02-24T11:45:54.159Z,8.27
2019-02-24T11:48:26.929Z,7.67
2019-02-24T11:50:56.247Z,8.27
2019-02-24T11:53:25.576Z,7.97
2019-02-24T11:55:54.884Z,8.60
2019-02-24T11:58:43.579Z,9.37
2019-02-24T12:01:12.890Z,9.67
2019-02-24T12:03:42.245Z,8.70
2019-02-24T12:06:11.553Z,8.63
2019-02-24T12:08:40.902Z,9.40
2019-02-24T12:11:10.228Z,8.23
2019-02-24T12:13:39.609Z,8.57
2019-02-24T12:16:08.919Z,9.77
2019-02-24T12:18:38.291Z,8.70
2019-02-24T12:21:07.610Z,7.90
2019-02-24T12:23:36.921Z,8.00
2019-02-24T12:26:06.254Z,8.07
2019-02-24T12:28:35.570Z,7.93
2019-02-24T12:31:05.044Z,9.80
2019-02-24T12:33:34.370Z,8.20
2019-02-24T12:36:03.677Z,8.67
2019-02-24T12:38:33.018Z,8.80
2019-02-24T12:41:02.346Z,8.50
2019-02-24T12:43:31.688Z,7.30
2019-02-24T12:46:00.991Z,8.93
2019-02-24T12:48:30.338Z,8.53
2019-02-24T12:50:59.671Z,9.30
2019-02-24T12:53:29.040Z,9.27
2019-02-24T12:55:58.367Z,8.37
2019-02-24T12:58:27.676Z,7.93
2019-02-24T13:00:56.978Z,9.63
2019-02-24T13:03:26.327Z,9.50
2019-02-24T13:05:55.714Z,7.87
2019-02-24T13:08:25.036Z,7.23
2019-02-24T13:10:54.476Z,7.43
2019-02-24T13:13:23.825Z,8.43
2019-02-24T13:15:53.136Z,13.03
2019-02-24T13:18:22.446Z,11.10
2019-02-24T13:20:51.774Z,16.60
2019-02-24T13:23:21.081Z,12.33
2019-02-24T13:25:50.414Z,12.33
2019-02-24T13:28:19.743Z,12.40
2019-02-24T13:30:49.088Z,10.87
2019-02-24T13:33:18.427Z,10.83
2019-02-24T13:35:47.765Z,10.53
2019-02-24T13:41:01.195Z,12.20
2019-02-24T13:43:30.583Z,9.70
2019-02-24T13:45:59.949Z,11.87
2019-02-24T13:48:29.270Z,8.97
2019-02-24T13:50:58.579Z,11.63
2019-02-24T13:53:27.888Z,11.93
2019-02-24T13:55:57.202Z,10.67
2019-02-24T13:58:26.523Z,15.27
2019-02-24T14:00:55.874Z,10.07
2019-02-24T14:03:25.201Z,15.07
2019-02-24T14:05:54.573Z,11.17
2019-02-24T14:08:23.950Z,11.07
2019-02-24T14:10:53.306Z,9.60
2019-02-24T14:13:22.823Z,10.60
2019-02-24T14:15:52.124Z,11.00
2019-02-24T14:18:21.510Z,10.90
2019-02-24T14:20:51.185Z,13.23
2019-02-24T14:23:20.524Z,10.33
2019-02-24T14:25:49.875Z,11.77
2019-02-24T14:28:19.200Z,10.97
2019-02-24T14:30:48.539Z,14.03
2019-02-24T14:33:17.898Z,14.53
2019-02-24T14:35:47.243Z,15.77
2019-02-24T14:38:16.564Z,12.77
2019-02-24T14:40:45.892Z,14.47
2019-02-24T14:43:15.195Z,11.70
2019-02-24T14:45:49.617Z,13.80
2019-02-24T14:48:33.724Z,10.77
2019-02-24T14:51:03.075Z,10.27
2019-02-24T14:53:32.392Z,13.57
2019-02-24T14:56:01.737Z,14.50
2019-02-24T14:58:31.053Z,15.90
2019-02-24T15:01:00.845Z,16.83
2019-02-24T15:03:49.631Z,15.07
2019-02-24T15:06:18.941Z,14.07
2019-02-24T15:08:48.256Z,13.87
2019-02-24T15:11:17.675Z,14.40
2019-02-24T15:13:46.978Z,14.57
2019-02-24T15:16:16.286Z,13.17
2019-02-24T15:18:45.623Z,16.67
2019-02-24T15:21:14.929Z,15.97
2019-02-24T15:23:44.261Z,17.47
2019-02-24T15:26:13.599Z,18.13
2019-02-24T15:28:42.907Z,17.30
2019-02-24T15:31:31.582Z,16.47
2019-02-24T15:34:00.913Z,20.23
2019-02-24T15:36:30.218Z,18.40
2019-02-24T15:38:59.527Z,21.47
2019-02-24T15:41:29.955Z,21.23
2019-02-24T15:44:18.092Z,20.97
2019-02-24T15:46:47.399Z,22.37
2019-02-24T15:49:16.715Z,34.13
2019-02-24T15:51:46.041Z,21.77
2019-02-24T15:54:15.750Z,18.73
2019-02-24T15:56:45.082Z,17.80
2019-02-24T15:59:14.467Z,19.27
2019-02-24T16:01:43.786Z,19.43
2019-02-24T16:04:13.112Z,19.70
2019-02-24T16:06:42.691Z,17.67
2019-02-24T16:09:12.123Z,20.60
2019-02-24T16:11:53.749Z,20.13
2019-02-24T16:14:23.064Z,18.73
2019-02-24T16:16:52.483Z,21.27
2019-02-24T16:19:21.795Z,20.17
2019-02-24T16:21:51.187Z,21.60
2019-02-24T16:24:20.496Z,19.83
2019-02-24T16:26:49.806Z,19.63
2019-02-24T16:29:19.131Z,24.13
2019-02-24T16:31:48.450Z,17.67
2019-02-24T16:34:17.769Z,14.80
2019-02-24T16:36:47.082Z,15.50
2019-02-24T16:39:16.402Z,14.30
2019-02-24T16:41:45.723Z,14.00
2019-02-24T16:44:15.037Z,13.90
2019-02-24T16:46:44.345Z,16.80
2019-02-24T16:49:13.694Z,17.17
2019-02-24T16:51:43.088Z,15.50
2019-02-24T16:54:12.392Z,20.93
2019-02-24T16:56:41.697Z,18.83
2019-02-24T16:59:11.017Z,15.50
2019-02-24T17:01:40.341Z,15.40
2019-02-24T17:04:09.660Z,11.57
2019-02-24T17:06:39.041Z,13.20
2019-02-24T17:09:08.563Z,12.10
2019-02-24T17:11:37.940Z,11.80
2019-02-24T17:14:07.280Z,12.30
2019-02-24T17:16:36.595Z,11.37
2019-02-24T17:19:05.936Z,11.33
2019-02-24T17:21:35.301Z,11.50
2019-02-24T17:24:04.632Z,10.37
2019-02-24T17:26:34.048Z,10.97
2019-02-24T17:29:03.401Z,13.47
2019-02-24T17:31:32.799Z,13.03
2019-02-24T17:34:02.156Z,11.90
2019-02-24T17:36:31.504Z,14.07
2019-02-24T17:39:00.821Z,13.23
2019-02-24T17:41:30.149Z,12.50
2019-02-24T17:43:59.488Z,12.33
2019-02-24T17:46:28.784Z,12.87
2019-02-24T17:48:58.097Z,14.07
2019-02-24T17:51:27.412Z,13.07
2019-02-24T17:53:56.724Z,12.80
2019-02-24T17:56:26.042Z,17.00
2019-02-24T17:58:55.397Z,21.53
2019-02-24T18:01:24.825Z,38.40
2019-02-24T18:03:54.678Z,31.67
2019-02-24T18:06:24.456Z,49.70
2019-02-24T18:08:54.403Z,66.93
2019-02-24T18:11:23.852Z,42.03
2019-02-24T18:13:53.205Z,24.30
2019-02-24T18:16:22.528Z,22.83
2019-02-24T18:18:51.853Z,27.60
2019-02-24T18:21:21.180Z,24.73
2019-02-24T18:23:50.523Z,21.40
2019-02-24T18:26:19.857Z,23.80
2019-02-24T18:28:49.220Z,23.27
2019-02-24T18:31:18.540Z,21.90
2019-02-24T18:33:48.629Z,31.40
2019-02-24T18:36:18.052Z,24.00
2019-02-24T18:38:47.395Z,19.87
2019-02-24T18:41:16.716Z,22.23
2019-02-24T18:43:46.055Z,24.43
2019-02-24T18:46:15.457Z,25.57
2019-02-24T18:48:44.761Z,17.33
2019-02-24T18:51:14.079Z,16.33
2019-02-24T18:53:43.417Z,16.10
2019-02-24T18:56:12.731Z,13.57
2019-02-24T18:58:42.101Z,12.17
2019-02-24T19:01:11.378Z,15.40
2019-02-24T19:03:41.791Z,14.80
2019-02-24T19:06:11.271Z,13.97
2019-02-24T19:08:40.683Z,12.83
2019-02-24T19:11:10.103Z,11.57
2019-02-24T19:13:39.420Z,13.40
2019-02-24T19:16:08.750Z,11.70
2019-02-24T19:18:38.061Z,11.37
2019-02-24T19:21:07.383Z,9.77
2019-02-24T19:23:36.682Z,9.80
2019-02-24T19:26:05.994Z,13.20
2019-02-24T19:28:35.297Z,13.73
2019-02-24T19:31:04.617Z,10.80
2019-02-24T19:33:34.037Z,9.47
2019-02-24T19:36:03.345Z,9.50
2019-02-24T19:38:32.665Z,9.17
2019-02-24T19:41:01.990Z,9.03
2019-02-24T19:43:31.303Z,10.13
2019-02-24T19:46:00.761Z,8.40
2019-02-24T19:48:30.082Z,10.07
2019-02-24T19:50:59.395Z,11.03
2019-02-24T19:53:28.693Z,10.93
2019-02-24T19:55:58.002Z,10.13
2019-02-24T19:58:27.323Z,11.27
2019-02-24T20:00:56.631Z,10.43
2019-02-24T20:03:25.942Z,9.70
2019-02-24T20:05:55.289Z,9.27
2019-02-24T20:08:24.583Z,9.03
2019-02-24T20:11:12.917Z,10.90
2019-02-24T20:13:42.226Z,10.37
2019-02-24T20:16:12.531Z,10.77
2019-02-24T20:18:41.852Z,9.87
2019-02-24T20:21:11.156Z,10.73
2019-02-24T20:23:40.496Z,11.43
2019-02-24T20:26:10.048Z,10.90
2019-02-24T20:28:40.080Z,10.57
2019-02-24T20:31:28.560Z,10.30
2019-02-24T20:33:57.879Z,11.67
2019-02-24T20:36:27.185Z,10.50
2019-02-24T20:38:56.504Z,10.53
2019-02-24T20:41:25.821Z,11.47
2019-02-24T20:43:55.131Z,11.50
2019-02-24T20:46:24.459Z,11.23
2019-02-24T20:48:53.784Z,12.67
2019-02-24T20:51:23.089Z,12.10
2019-02-24T20:53:52.402Z,12.70
2019-02-24T20:56:21.708Z,12.70
2019-02-24T20:58:51.022Z,12.77
2019-02-24T21:01:20.325Z,12.03
2019-02-24T21:03:49.634Z,11.00
2019-02-24T21:06:18.954Z,10.87
2019-02-24T21:08:48.263Z,13.03
2019-02-24T21:11:17.597Z,11.57
2019-02-24T21:13:46.923Z,11.03
2019-02-24T21:16:16.231Z,10.07
2019-02-24T21:18:45.557Z,10.87
2019-02-24T21:21:14.883Z,11.30
2019-02-24T21:23:44.205Z,10.37
2019-02-24T21:26:13.546Z,11.80
2019-02-24T21:28:42.858Z,10.83
2019-02-24T21:31:12.188Z,12.03
2019-02-24T21:33:41.499Z,12.23
2019-02-24T21:36:10.971Z,13.40
2019-02-24T21:38:40.275Z,12.93
2019-02-24T21:41:09.683Z,13.03
2019-02-24T21:43:39.049Z,11.57
2019-02-24T21:46:08.363Z,12.47
2019-02-24T21:48:37.665Z,11.23
2019-02-24T21:51:06.985Z,11.40
2019-02-24T21:53:36.286Z,11.07
2019-02-24T21:56:05.603Z,9.33
2019-02-24T21:58:34.903Z,8.03
2019-02-24T22:04:06.929Z,7.67
2019-02-24T22:06:36.272Z,7.90
2019-02-24T22:09:08.626Z,8.83
2019-02-24T22:11:37.959Z,8.30
2019-02-24T22:14:07.263Z,8.33
2019-02-24T22:16:36.573Z,7.87
2019-02-24T22:19:05.875Z,6.83
2019-02-24T22:21:35.197Z,8.47
2019-02-24T22:24:04.507Z,7.10
2019-02-24T22:26:33.823Z,8.10
2019-02-24T22:29:03.121Z,8.03
2019-02-24T22:31:32.422Z,6.63
2019-02-24T22:34:01.751Z,7.83
2019-02-24T22:36:31.064Z,7.23
2019-02-24T22:39:00.366Z,7.80
2019-02-24T22:41:29.685Z,7.00
2019-02-24T22:43:58.998Z,7.23
2019-02-24T22:46:28.320Z,7.90
2019-02-24T22:48:57.627Z,7.50
2019-02-24T22:51:26.926Z,7.73
2019-02-24T22:53:56.225Z,7.97
2019-02-24T22:56:25.535Z,8.33
2019-02-24T22:58:54.850Z,8.70
2019-02-24T23:04:20.378Z,8.27
2019-02-24T23:06:49.695Z,7.93
2019-02-24T23:09:19.997Z,8.90
2019-02-24T23:11:49.316Z,8.77
2019-02-24T23:14:18.837Z,8.40
2019-02-24T23:16:48.158Z,8.83
2019-02-24T23:19:17.713Z,7.50
2019-02-24T23:21:47.023Z,8.53
2019-02-24T23:24:16.351Z,8.27
2019-02-24T23:26:45.661Z,8.30
2019-02-24T23:29:14.971Z,8.17
2019-02-24T23:31:44.273Z,9.07
2019-02-24T23:34:13.582Z,6.83
2019-02-24T23:36:42.882Z,7.97
2019-02-24T23:39:16.664Z,8.60
2019-02-24T23:41:46.425Z,7.60
2019-02-24T23:44:15.734Z,7.57
2019-02-24T23:46:45.052Z,7.37
2019-02-24T23:49:14.368Z,8.23
2019-02-24T23:51:43.661Z,8.30
2019-02-24T23:54:12.969Z,8.83
2019-02-24T23:56:42.270Z,8.27
2019-02-24T23:59:11.574Z,7.97
